Time;durP1;ratioP1;P1;durP2;ratioP2;P2;SDS_P1;SDS_P2;PMS_P1;PMS_P2;Temp;Humidity;BMP_temperature;BMP_pressure;BME280_temperature;BME280_humidity;BME280_pressure;Samples;Min_cycle;Max_cycle;Signal;HPM_P1;HPM_P2
2021/11/11 00:00:35;;;;;;;34.03;19.55;;;10.20;99.90;;;;;;4982681;28;25085;-65
2021/11/11 00:03:01;;;;;;;37.65;20.17;;;10.30;99.90;;;;;;4988370;28;25079;-63
2021/11/11 00:05:27;;;;;;;32.72;19.20;;;10.20;99.90;;;;;;4984266;28;25112;-63
2021/11/11 00:07:53;;;;;;;38.47;20.80;;;10.20;99.90;;;;;;4987215;28;25077;-64
2021/11/11 00:10:20;;;;;;;41.00;20.40;;;10.30;99.90;;;;;;4990610;28;25117;-65
2021/11/11 00:12:48;;;;;;;40.30;20.35;;;10.30;99.90;;;;;;4989745;28;25064;-63
2021/11/11 00:15:14;;;;;;;35.10;21.30;;;10.40;99.90;;;;;;4981983;28;24945;-65
2021/11/11 00:17:41;;;;;;;36.28;20.35;;;10.40;99.90;;;;;;4984963;28;25054;-63
2021/11/11 00:20:09;;;;;;;36.17;19.45;;;10.40;99.90;;;;;;4985826;28;25060;-63
2021/11/11 00:22:35;;;;;;;47.70;21.98;;;10.40;99.90;;;;;;4978359;28;25099;-64
2021/11/11 00:25:00;;;;;;;42.03;23.20;;;10.40;99.90;;;;;;4956284;28;25105;-63
2021/11/11 00:27:26;;;;;;;47.50;22.60;;;10.20;99.90;;;;;;4983328;28;25104;-65
2021/11/11 00:29:52;;;;;;;37.88;22.13;;;10.20;99.90;;;;;;4991085;28;25082;-64
2021/11/11 00:32:17;;;;;;;37.22;21.45;;;10.30;99.90;;;;;;4997334;28;25063;-63
2021/11/11 00:34:44;;;;;;;41.88;21.77;;;10.30;99.90;;;;;;4991876;28;25066;-64
2021/11/11 00:37:09;;;;;;;38.83;20.50;;;10.30;99.90;;;;;;4980534;28;25066;-62
2021/11/11 00:39:35;;;;;;;43.08;20.42;;;10.30;99.90;;;;;;4977795;28;25145;-64
2021/11/11 00:42:01;;;;;;;44.83;21.70;;;10.30;99.90;;;;;;4991325;28;25086;-63
2021/11/11 00:44:27;;;;;;;40.83;21.58;;;10.30;99.90;;;;;;4991577;28;25119;-64
2021/11/11 00:46:53;;;;;;;40.45;20.55;;;10.20;99.90;;;;;;4992845;28;25075;-63
2021/11/11 00:49:19;;;;;;;40.83;21.40;;;10.10;99.90;;;;;;4992217;28;25111;-63
2021/11/11 00:51:44;;;;;;;47.67;21.80;;;10.20;99.90;;;;;;4990323;28;25111;-62
2021/11/11 00:54:10;;;;;;;40.00;21.25;;;10.20;99.90;;;;;;4990688;28;25146;-64
2021/11/11 00:56:36;;;;;;;40.90;20.58;;;10.20;99.90;;;;;;4980547;28;25055;-65
2021/11/11 00:59:03;;;;;;;39.60;20.90;;;10.30;99.90;;;;;;4977149;28;25145;-64
2021/11/11 01:01:30;;;;;;;40.20;21.50;;;10.30;99.90;;;;;;4979128;28;25092;-63
2021/11/11 01:03:57;;;;;;;42.42;22.50;;;10.30;99.90;;;;;;4990047;28;25068;-64
2021/11/11 01:06:25;;;;;;;34.97;19.48;;;10.30;99.90;;;;;;4986113;28;25146;-62
2021/11/11 01:08:51;;;;;;;35.75;20.60;;;10.30;99.90;;;;;;4986741;28;25085;-63
2021/11/11 01:11:16;;;;;;;37.67;20.42;;;10.30;99.90;;;;;;4978671;28;25133;-63
2021/11/11 01:13:42;;;;;;;37.05;20.30;;;10.30;99.90;;;;;;4988349;28;25098;-63
2021/11/11 01:16:07;;;;;;;40.30;20.27;;;10.30;99.90;;;;;;4983862;28;25093;-64
2021/11/11 01:18:33;;;;;;;48.80;21.65;;;10.40;99.90;;;;;;4986482;28;25078;-62
2021/11/11 01:20:59;;;;;;;37.03;20.77;;;10.30;99.90;;;;;;4992416;28;25075;-62
2021/11/11 01:23:25;;;;;;;34.75;20.08;;;10.40;99.90;;;;;;4981085;28;25093;-64
2021/11/11 01:25:51;;;;;;;45.53;21.55;;;10.40;99.90;;;;;;4987837;28;25132;-63
2021/11/11 01:28:16;;;;;;;39.10;21.00;;;10.40;99.90;;;;;;4996820;28;25108;-63
2021/11/11 01:30:44;;;;;;;42.85;20.35;;;10.30;99.90;;;;;;4986288;28;25154;-63
2021/11/11 01:33:11;;;;;;;40.20;20.60;;;10.30;99.90;;;;;;4993741;28;25065;-63
2021/11/11 01:35:38;;;;;;;37.55;20.05;;;10.30;99.90;;;;;;4990623;28;25077;-62
2021/11/11 01:38:04;;;;;;;36.80;20.58;;;10.30;99.90;;;;;;4990076;28;25077;-63
2021/11/11 01:40:30;;;;;;;43.30;20.80;;;10.30;99.90;;;;;;4970507;28;25074;-62
2021/11/11 01:43:02;;;;;;;36.60;19.83;;;10.30;99.90;;;;;;4989679;28;25050;-63
2021/11/11 01:45:34;;;;;;;34.40;19.45;;;10.30;99.90;;;;;;4997513;28;25127;-63
2021/11/11 01:48:02;;;;;;;39.75;20.40;;;10.40;99.90;;;;;;4996602;28;25107;-62
2021/11/11 01:50:28;;;;;;;41.13;21.70;;;10.50;99.90;;;;;;5000320;28;25053;-61
2021/11/11 01:52:55;;;;;;;34.72;20.27;;;10.50;99.90;;;;;;4996609;28;25057;-63
2021/11/11 01:55:21;;;;;;;38.60;21.75;;;10.40;99.90;;;;;;4992740;28;25135;-63
2021/11/11 01:57:47;;;;;;;35.03;20.77;;;10.30;99.90;;;;;;4993052;28;25067;-62
2021/11/11 02:00:17;;;;;;;40.00;20.50;;;10.20;99.90;;;;;;4990485;28;25122;-63
2021/11/11 02:02:43;;;;;;;38.65;20.60;;;10.20;99.90;;;;;;4970845;28;25073;-62
2021/11/11 02:05:09;;;;;;;43.65;22.65;;;10.10;99.90;;;;;;4987742;28;25106;-63
2021/11/11 02:07:35;;;;;;;42.97;20.92;;;10.10;99.90;;;;;;4991271;28;25059;-62
2021/11/11 02:10:00;;;;;;;39.78;20.60;;;9.90;99.90;;;;;;4988411;28;25138;-63
2021/11/11 02:12:31;;;;;;;50.67;23.17;;;10.00;99.90;;;;;;4993523;28;25085;-63
2021/11/11 02:14:57;;;;;;;41.97;22.60;;;10.00;99.90;;;;;;4992275;28;25141;-62
2021/11/11 02:17:28;;;;;;;46.85;23.80;;;9.90;99.90;;;;;;4985441;28;25077;-62
2021/11/11 02:20:10;;;;;;;44.75;23.50;;;9.80;99.90;;;;;;4988977;28;25100;-62
2021/11/11 02:22:37;;;;;;;46.90;24.52;;;9.80;99.90;;;;;;4990911;28;25079;-62
2021/11/11 02:25:07;;;;;;;45.85;22.98;;;9.80;99.90;;;;;;4990590;28;25160;-62
2021/11/11 02:27:33;;;;;;;40.70;21.40;;;9.80;99.90;;;;;;4987749;28;25098;-64
2021/11/11 02:29:59;;;;;;;39.97;22.25;;;9.90;99.90;;;;;;4986824;28;25097;-63
2021/11/11 02:32:29;;;;;;;40.58;22.42;;;9.90;99.90;;;;;;4965719;28;25138;-63
2021/11/11 02:34:55;;;;;;;46.85;22.33;;;10.00;99.90;;;;;;4987009;28;25086;-62
2021/11/11 02:37:21;;;;;;;47.53;23.35;;;9.80;99.90;;;;;;4990097;28;25080;-63
2021/11/11 02:39:46;;;;;;;35.97;22.42;;;9.80;99.90;;;;;;4986504;28;25079;-62
2021/11/11 02:42:12;;;;;;;48.22;22.42;;;9.80;99.90;;;;;;4989634;28;25129;-62
2021/11/11 02:44:43;;;;;;;46.53;23.20;;;9.90;99.90;;;;;;4989454;28;25077;-62
2021/11/11 02:47:08;;;;;;;41.75;21.48;;;9.80;99.90;;;;;;4989645;28;25099;-63
2021/11/11 02:49:34;;;;;;;44.90;23.23;;;9.80;99.90;;;;;;4999030;28;25065;-62
2021/11/11 02:52:00;;;;;;;45.67;23.02;;;9.80;99.90;;;;;;5001064;28;25068;-62
2021/11/11 02:54:27;;;;;;;48.95;22.63;;;9.80;99.90;;;;;;5000072;28;25090;-63
2021/11/11 02:56:52;;;;;;;46.92;23.83;;;9.70;99.90;;;;;;4990023;28;25046;-63
2021/11/11 02:59:18;;;;;;;41.00;22.73;;;9.70;99.90;;;;;;4991038;28;25146;-63
2021/11/11 03:01:44;;;;;;;45.60;23.40;;;9.70;99.90;;;;;;4984185;28;25165;-63
2021/11/11 03:04:09;;;;;;;44.63;24.63;;;9.70;99.90;;;;;;4986336;28;25064;-62
2021/11/11 03:06:39;;;;;;;55.08;24.73;;;9.70;99.90;;;;;;4989315;28;25055;-62
2021/11/11 03:09:04;;;;;;;50.72;26.52;;;9.60;99.90;;;;;;4988750;28;25082;-62
2021/11/11 03:11:30;;;;;;;47.97;24.70;;;9.60;99.90;;;;;;4982361;28;25076;-63
2021/11/11 03:13:56;;;;;;;43.95;24.23;;;9.60;99.90;;;;;;4984072;28;25065;-63
2021/11/11 03:16:22;;;;;;;45.83;24.25;;;9.60;99.90;;;;;;4986004;28;25086;-64
2021/11/11 03:18:48;;;;;;;53.00;24.25;;;9.60;99.90;;;;;;4984513;28;25059;-63
2021/11/11 03:21:14;;;;;;;47.42;24.00;;;9.60;99.90;;;;;;4982685;28;25095;-63
2021/11/11 03:23:39;;;;;;;51.03;26.10;;;9.70;99.90;;;;;;4984689;28;25089;-62
2021/11/11 03:26:05;;;;;;;43.33;24.48;;;9.60;99.90;;;;;;4988924;28;25078;-64
2021/11/11 03:28:31;;;;;;;49.42;25.05;;;9.60;99.90;;;;;;4986711;28;25051;-63
2021/11/11 03:30:56;;;;;;;50.65;25.23;;;9.50;99.90;;;;;;4988505;28;25162;-62
2021/11/11 03:33:22;;;;;;;51.33;26.45;;;9.50;99.90;;;;;;4967224;28;25078;-63
2021/11/11 03:35:48;;;;;;;48.33;25.63;;;9.50;99.90;;;;;;4981943;28;25117;-63
2021/11/11 03:38:13;;;;;;;48.13;24.42;;;9.50;99.90;;;;;;4977796;28;25076;-62
2021/11/11 03:40:43;;;;;;;53.95;24.27;;;9.50;99.90;;;;;;4988343;28;25064;-63
2021/11/11 03:43:09;;;;;;;44.47;24.33;;;9.60;99.90;;;;;;4973791;28;25153;-65
2021/11/11 03:45:35;;;;;;;43.92;24.35;;;9.60;99.90;;;;;;4971095;28;25093;-63
2021/11/11 03:48:01;;;;;;;42.53;24.02;;;9.60;99.90;;;;;;4980003;28;25086;-62
2021/11/11 03:50:28;;;;;;;43.95;24.15;;;9.60;99.90;;;;;;4987120;28;25129;-63
2021/11/11 03:52:55;;;;;;;50.88;24.85;;;9.60;99.90;;;;;;4988883;28;25079;-61
2021/11/11 03:55:24;;;;;;;44.97;24.40;;;9.70;99.90;;;;;;4976159;28;25512;-63
2021/11/11 03:57:51;;;;;;;46.97;25.05;;;9.70;99.90;;;;;;4972652;28;25107;-63
2021/11/11 04:00:19;;;;;;;52.08;25.80;;;9.70;99.90;;;;;;4965369;28;25059;-63
2021/11/11 04:02:46;;;;;;;49.20;25.48;;;9.70;99.90;;;;;;4977780;28;25106;-63
2021/11/11 04:05:12;;;;;;;47.85;26.17;;;9.70;99.90;;;;;;4974882;28;25062;-63
2021/11/11 04:07:38;;;;;;;48.97;26.02;;;9.60;99.90;;;;;;4981381;28;25060;-63
2021/11/11 04:10:05;;;;;;;46.80;25.85;;;9.60;99.90;;;;;;4980793;28;25135;-64
2021/11/11 04:12:31;;;;;;;42.63;26.27;;;9.50;99.90;;;;;;4993378;28;25101;-61
2021/11/11 04:14:56;;;;;;;49.35;25.75;;;9.50;99.90;;;;;;4998425;28;25099;-62
2021/11/11 04:17:22;;;;;;;48.70;25.63;;;9.60;99.90;;;;;;5003141;28;25145;-61
2021/11/11 04:19:48;;;;;;;45.92;26.17;;;9.60;99.90;;;;;;5004526;28;25066;-61
2021/11/11 04:22:13;;;;;;;48.78;25.27;;;9.70;99.90;;;;;;5004276;28;25103;-62
2021/11/11 04:24:40;;;;;;;50.00;25.38;;;9.60;99.90;;;;;;4999413;28;25112;-62
2021/11/11 04:29:35;;;;;;;46.15;26.02;;;9.70;99.90;;;;;;4990345;28;25087;-63
2021/11/11 04:32:03;;;;;;;45.10;26.98;;;9.60;99.90;;;;;;4986073;28;25153;-62
2021/11/11 04:34:31;;;;;;;44.28;25.15;;;9.60;99.90;;;;;;4975303;28;25062;-62
2021/11/11 04:45:10;;;;;;;56.25;25.92;;;9.60;99.90;;;;;;4981704;28;25097;-62
2021/11/11 04:47:48;;;;;;;51.75;25.98;;;9.50;99.90;;;;;;4988910;28;25104;-62
2021/11/11 05:01:16;;;;;;;44.53;25.77;;;9.50;99.90;;;;;;4975381;28;25068;-62
2021/11/11 05:03:48;;;;;;;46.22;26.52;;;9.50;99.90;;;;;;4985690;28;25068;-63
2021/11/11 05:06:15;;;;;;;51.13;27.20;;;9.40;99.90;;;;;;4986666;28;25076;-63
2021/11/11 05:08:41;;;;;;;48.90;26.60;;;9.20;99.90;;;;;;4988288;28;25056;-63
2021/11/11 05:11:07;;;;;;;53.40;26.60;;;9.20;99.90;;;;;;4987224;28;25082;-62
2021/11/11 05:13:33;;;;;;;44.05;25.52;;;9.30;99.90;;;;;;4987867;28;25072;-62
2021/11/11 05:15:58;;;;;;;43.80;25.25;;;9.40;99.90;;;;;;4986348;28;25065;-61
2021/11/11 05:18:25;;;;;;;53.95;26.30;;;9.50;99.90;;;;;;4989091;28;25139;-63
2021/11/11 05:20:50;;;;;;;41.05;24.77;;;9.50;99.90;;;;;;4993305;28;25060;-62
2021/11/11 05:23:16;;;;;;;48.45;26.75;;;9.50;99.90;;;;;;4983935;28;25070;-62
2021/11/11 05:25:42;;;;;;;48.53;26.23;;;9.60;99.90;;;;;;4991899;28;25114;-62
2021/11/11 05:28:08;;;;;;;42.80;24.42;;;9.60;99.90;;;;;;4994452;28;25130;-63
2021/11/11 05:30:34;;;;;;;42.85;24.20;;;9.60;99.90;;;;;;4987385;28;25073;-62
2021/11/11 05:33:00;;;;;;;47.55;26.00;;;9.60;99.90;;;;;;4981015;28;25072;-63
2021/11/11 05:35:27;;;;;;;48.83;25.42;;;9.50;99.90;;;;;;4990748;28;25084;-61
2021/11/11 05:37:53;;;;;;;47.45;26.60;;;9.50;99.90;;;;;;4978414;28;25080;-62
2021/11/11 05:40:20;;;;;;;46.13;26.27;;;9.30;99.90;;;;;;4977333;28;25073;-63
2021/11/11 05:42:47;;;;;;;47.15;24.83;;;9.40;99.90;;;;;;4978615;28;25145;-63
2021/11/11 05:45:15;;;;;;;46.03;25.85;;;9.50;99.90;;;;;;4973046;28;25058;-62
2021/11/11 05:47:41;;;;;;;48.55;26.42;;;9.60;99.90;;;;;;4982768;28;25074;-63
2021/11/11 05:50:08;;;;;;;46.92;27.42;;;9.60;99.90;;;;;;4984963;28;25154;-62
2021/11/11 05:52:33;;;;;;;48.63;27.10;;;9.60;99.90;;;;;;4989220;28;25055;-63
2021/11/11 05:54:59;;;;;;;44.63;22.98;;;9.70;99.90;;;;;;4983517;28;25055;-62
2021/11/11 05:57:25;;;;;;;44.60;24.90;;;9.70;99.90;;;;;;4988930;28;25059;-62
2021/11/11 05:59:50;;;;;;;46.80;25.08;;;9.70;99.90;;;;;;4975895;28;25061;-62
2021/11/11 06:02:16;;;;;;;43.80;26.55;;;9.70;99.90;;;;;;4978238;28;25088;-64
2021/11/11 06:04:43;;;;;;;49.00;25.40;;;9.70;99.90;;;;;;4990226;28;25113;-63
2021/11/11 06:07:10;;;;;;;44.90;24.95;;;9.70;99.90;;;;;;4990317;28;25171;-67
2021/11/11 06:09:35;;;;;;;43.35;24.90;;;9.60;99.90;;;;;;4982382;28;25059;-64
2021/11/11 06:12:02;;;;;;;53.53;27.33;;;9.70;99.90;;;;;;4991550;28;25136;-63
2021/11/11 06:14:27;;;;;;;47.63;26.23;;;9.80;99.90;;;;;;4992073;28;25100;-63
2021/11/11 06:16:53;;;;;;;52.78;27.70;;;9.70;99.90;;;;;;4994537;28;25108;-62
2021/11/11 06:19:19;;;;;;;43.50;24.05;;;9.70;99.90;;;;;;5002766;28;25109;-62
2021/11/11 06:21:45;;;;;;;58.08;28.42;;;9.70;99.90;;;;;;4990989;28;25160;-63
2021/11/11 06:24:11;;;;;;;50.92;25.88;;;9.70;99.90;;;;;;4998161;28;25071;-63
2021/11/11 06:26:37;;;;;;;40.20;25.27;;;9.70;99.90;;;;;;4979642;28;25052;-63
2021/11/11 06:29:04;;;;;;;43.92;25.83;;;9.70;99.90;;;;;;4993385;28;25065;-64
2021/11/11 06:31:30;;;;;;;43.92;24.63;;;9.70;99.90;;;;;;4998985;28;25080;-64
2021/11/11 06:33:56;;;;;;;47.22;25.83;;;9.70;99.90;;;;;;4989967;28;25144;-63
2021/11/11 06:36:22;;;;;;;49.75;27.52;;;9.70;99.90;;;;;;4990131;28;25095;-63
2021/11/11 06:38:48;;;;;;;49.88;26.10;;;9.60;99.90;;;;;;4980770;28;25130;-64
2021/11/11 06:41:14;;;;;;;50.28;27.73;;;9.60;99.90;;;;;;4990684;28;25184;-65
2021/11/11 06:43:39;;;;;;;57.55;27.77;;;9.70;99.90;;;;;;4977389;28;25086;-63
2021/11/11 06:46:06;;;;;;;50.15;25.25;;;9.70;99.90;;;;;;4985872;28;25136;-63
2021/11/11 06:48:32;;;;;;;50.33;26.67;;;9.80;99.90;;;;;;5001327;28;25146;-63
2021/11/11 06:50:58;;;;;;;43.92;25.17;;;9.80;99.90;;;;;;4990963;28;25140;-63
2021/11/11 06:53:24;;;;;;;54.65;28.50;;;9.90;99.90;;;;;;4992219;28;25114;-62
2021/11/11 06:55:50;;;;;;;47.80;26.13;;;10.00;99.90;;;;;;4987356;28;25093;-63
2021/11/11 06:58:22;;;;;;;52.75;26.80;;;10.00;99.90;;;;;;4985838;28;25069;-63
2021/11/11 07:00:51;;;;;;;53.17;26.35;;;10.00;99.90;;;;;;4978533;28;25103;-64
2021/11/11 07:03:17;;;;;;;50.33;28.05;;;10.00;99.90;;;;;;4988536;28;25078;-63
2021/11/11 07:05:43;;;;;;;52.50;27.13;;;10.00;99.90;;;;;;4980809;28;25078;-66
2021/11/11 07:08:11;;;;;;;53.92;28.67;;;9.90;99.90;;;;;;4986424;28;25067;-63
2021/11/11 07:10:37;;;;;;;53.08;28.95;;;9.90;99.90;;;;;;4984671;28;25062;-65
2021/11/11 07:13:03;;;;;;;54.25;26.67;;;9.80;99.90;;;;;;4993037;28;25129;-62
2021/11/11 07:15:29;;;;;;;55.47;28.73;;;9.90;99.90;;;;;;4991480;28;25073;-63
2021/11/11 07:17:55;;;;;;;52.95;27.92;;;9.90;99.90;;;;;;4997048;28;25058;-64
2021/11/11 07:20:20;;;;;;;45.97;26.48;;;10.00;99.90;;;;;;5000219;28;25059;-63
2021/11/11 07:22:46;;;;;;;53.60;28.85;;;10.00;99.90;;;;;;5009434;28;25077;-63
2021/11/11 07:25:14;;;;;;;61.63;29.08;;;10.10;99.90;;;;;;5011222;28;25092;-62
2021/11/11 07:27:40;;;;;;;52.80;28.77;;;10.10;99.90;;;;;;5011001;28;25094;-62
2021/11/11 07:30:10;;;;;;;63.83;32.20;;;10.10;99.90;;;;;;4984522;28;25172;-63
2021/11/11 07:32:36;;;;;;;48.78;26.52;;;10.10;99.90;;;;;;4990602;28;25052;-65
2021/11/11 07:35:01;;;;;;;54.60;27.50;;;10.10;99.90;;;;;;4986796;28;25110;-64
2021/11/11 07:37:27;;;;;;;47.75;26.75;;;10.00;99.90;;;;;;4984855;28;25093;-64
2021/11/11 07:39:53;;;;;;;53.83;29.33;;;9.90;99.90;;;;;;4995338;28;25156;-63
2021/11/11 07:42:21;;;;;;;57.10;31.52;;;9.90;99.90;;;;;;4982945;28;25084;-63
2021/11/11 07:44:48;;;;;;;61.20;28.60;;;9.90;99.90;;;;;;4980912;28;25067;-63
2021/11/11 07:47:25;;;;;;;59.13;30.02;;;9.90;99.90;;;;;;4994446;28;25144;-65
2021/11/11 07:49:50;;;;;;;54.65;30.50;;;9.80;99.90;;;;;;4994492;28;25075;-64
2021/11/11 07:52:16;;;;;;;56.88;30.58;;;9.80;99.90;;;;;;4997787;28;25070;-64
2021/11/11 07:54:42;;;;;;;55.80;30.08;;;9.90;99.90;;;;;;4992121;28;25132;-64
2021/11/11 07:57:07;;;;;;;69.47;31.50;;;9.90;99.90;;;;;;5000962;28;25047;-64
2021/11/11 07:59:34;;;;;;;64.35;31.88;;;9.90;99.90;;;;;;5000979;28;25105;-63
2021/11/11 08:02:00;;;;;;;55.30;30.95;;;10.00;99.90;;;;;;4982735;28;25122;-63
2021/11/11 08:04:25;;;;;;;59.72;30.73;;;9.90;99.90;;;;;;4999722;28;25092;-63
2021/11/11 08:06:51;;;;;;;55.38;30.45;;;10.00;99.90;;;;;;4996740;28;25236;-62
2021/11/11 08:09:17;;;;;;;60.17;30.08;;;10.10;99.90;;;;;;5004582;28;25075;-64
2021/11/11 08:11:42;;;;;;;52.55;30.55;;;10.20;99.90;;;;;;4990772;28;25064;-64
2021/11/11 08:14:08;;;;;;;59.50;29.40;;;10.20;99.90;;;;;;5001334;28;25098;-64
2021/11/11 08:16:34;;;;;;;54.20;28.73;;;10.20;99.90;;;;;;4996716;28;25065;-64
2021/11/11 08:19:00;;;;;;;70.10;32.10;;;10.20;99.90;;;;;;5002263;28;25055;-62
2021/11/11 08:21:26;;;;;;;68.00;31.77;;;10.30;99.90;;;;;;4993413;28;25060;-66
2021/11/11 08:23:51;;;;;;;58.78;30.75;;;10.40;99.90;;;;;;5001003;28;25058;-64
2021/11/11 08:26:17;;;;;;;50.53;28.80;;;10.40;99.90;;;;;;5000985;28;25068;-63
2021/11/11 08:28:43;;;;;;;54.88;29.83;;;10.40;99.90;;;;;;4996300;28;25088;-64
2021/11/11 08:31:08;;;;;;;55.15;29.45;;;10.50;99.90;;;;;;4991833;28;25210;-64
2021/11/11 08:33:34;;;;;;;57.88;29.45;;;10.50;99.90;;;;;;4978191;28;25066;-62
2021/11/11 08:36:00;;;;;;;53.33;28.30;;;10.40;99.90;;;;;;4984035;28;25055;-63
2021/11/11 08:38:27;;;;;;;53.50;29.45;;;10.50;99.90;;;;;;4983696;28;25064;-64
2021/11/11 08:40:54;;;;;;;49.22;27.40;;;10.50;99.90;;;;;;4979652;28;25061;-64
2021/11/11 08:43:19;;;;;;;54.90;28.80;;;10.50;99.90;;;;;;4984489;28;25063;-63
2021/11/11 08:45:45;;;;;;;59.80;29.08;;;10.50;99.90;;;;;;4971847;28;25098;-62
2021/11/11 08:48:11;;;;;;;48.72;27.52;;;10.60;99.90;;;;;;4978493;28;25058;-63
2021/11/11 08:50:37;;;;;;;53.97;30.42;;;10.60;99.90;;;;;;4981231;28;25168;-63
2021/11/11 08:53:05;;;;;;;49.65;28.95;;;10.60;99.90;;;;;;4986612;28;25121;-63
2021/11/11 08:55:32;;;;;;;53.55;30.10;;;10.50;99.90;;;;;;4986584;28;25104;-64
2021/11/11 08:57:59;;;;;;;50.30;30.52;;;10.50;99.90;;;;;;4987748;28;25103;-63
2021/11/11 09:00:29;;;;;;;54.78;29.20;;;10.50;99.90;;;;;;4984904;28;25100;-63
2021/11/11 09:02:55;;;;;;;52.17;28.77;;;10.50;99.90;;;;;;4984035;28;25065;-63
2021/11/11 09:05:22;;;;;;;58.00;29.75;;;10.60;99.90;;;;;;4981669;28;25062;-63
2021/11/11 09:07:50;;;;;;;51.67;27.80;;;10.70;99.90;;;;;;4989855;28;25140;-64
2021/11/11 09:10:21;;;;;;;45.20;26.52;;;10.70;99.90;;;;;;4987390;28;25081;-62
2021/11/11 09:12:51;;;;;;;55.15;30.15;;;10.90;99.90;;;;;;4987018;28;25086;-64
2021/11/11 09:15:19;;;;;;;49.10;29.23;;;10.90;99.90;;;;;;4990091;28;25086;-65
2021/11/11 09:17:45;;;;;;;51.40;28.17;;;10.80;99.90;;;;;;4987550;28;25058;-63
2021/11/11 09:20:13;;;;;;;58.92;31.17;;;10.80;99.90;;;;;;4994644;28;25070;-62
2021/11/11 09:22:39;;;;;;;55.05;29.65;;;10.70;99.90;;;;;;4998911;28;25099;-62
2021/11/11 09:25:07;;;;;;;47.90;28.65;;;10.60;99.90;;;;;;4997980;28;25052;-63
2021/11/11 09:27:34;;;;;;;53.75;29.58;;;10.70;99.90;;;;;;4999270;28;25072;-64
2021/11/11 09:30:00;;;;;;;54.92;28.55;;;10.80;99.90;;;;;;5003661;28;25074;-63
2021/11/11 09:32:26;;;;;;;60.97;31.70;;;10.80;99.90;;;;;;4988722;28;25107;-62
2021/11/11 09:34:51;;;;;;;59.03;30.38;;;10.80;99.90;;;;;;4982731;28;25084;-65
2021/11/11 09:37:17;;;;;;;57.00;31.02;;;10.70;99.90;;;;;;4982182;28;25105;-64
2021/11/11 09:39:43;;;;;;;53.47;31.73;;;10.80;99.90;;;;;;4989304;28;25079;-63
2021/11/11 09:42:09;;;;;;;53.15;29.17;;;10.80;99.90;;;;;;4986343;28;25070;-63
2021/11/11 09:44:35;;;;;;;47.00;28.25;;;10.90;99.90;;;;;;4976437;28;25025;-65
2021/11/11 09:47:02;;;;;;;54.55;28.60;;;10.90;99.90;;;;;;4983983;28;25014;-64
2021/11/11 09:49:27;;;;;;;53.67;30.67;;;11.00;99.90;;;;;;4983375;28;25069;-63
2021/11/11 09:51:54;;;;;;;53.70;30.63;;;11.00;99.90;;;;;;4986856;28;25067;-63
2021/11/11 09:59:37;;;;;;;49.88;29.20;;;11.10;99.90;;;;;;4974840;28;25138;-63
2021/11/11 10:02:04;;;;;;;60.22;31.38;;;11.10;99.90;;;;;;4985936;28;25052;-63
2021/11/11 10:04:30;;;;;;;49.60;29.65;;;11.10;99.90;;;;;;4986611;28;25074;-63
2021/11/11 10:06:56;;;;;;;53.28;31.67;;;11.20;99.90;;;;;;4989700;28;25058;-63
2021/11/11 10:09:25;;;;;;;54.15;31.88;;;11.20;99.90;;;;;;4977391;28;25059;-63
2021/11/11 10:12:02;;;;;;;54.85;31.88;;;11.30;99.90;;;;;;4991047;28;25146;-63
2021/11/11 10:14:33;;;;;;;55.92;32.97;;;11.30;99.90;;;;;;4988829;28;25480;-63
2021/11/11 10:17:04;;;;;;;57.92;32.95;;;11.20;99.90;;;;;;4989856;28;25063;-63
2021/11/11 10:19:34;;;;;;;63.58;33.72;;;11.20;99.90;;;;;;4989079;28;25147;-64
2021/11/11 10:22:05;;;;;;;63.78;33.63;;;11.20;99.90;;;;;;4987272;28;25064;-64
2021/11/11 10:25:00;;;;;;;62.05;35.67;;;11.20;99.90;;;;;;4993186;28;25078;-62
2021/11/11 10:30:01;;;;;;;71.05;35.20;;;11.20;99.90;;;;;;4993550;28;25066;-62
2021/11/11 10:32:36;;;;;;;56.85;34.75;;;11.20;99.90;;;;;;4991499;28;25151;-63
2021/11/11 10:35:13;;;;;;;60.78;37.00;;;11.10;99.90;;;;;;4986003;28;25076;-63
2021/11/11 10:37:46;;;;;;;55.13;35.13;;;11.20;99.90;;;;;;4988366;28;25078;-63
2021/11/11 10:40:17;;;;;;;54.60;33.92;;;11.20;99.90;;;;;;4988055;28;25109;-66
2021/11/11 10:42:46;;;;;;;58.42;35.30;;;11.20;99.90;;;;;;4977237;28;25057;-64
2021/11/11 10:45:18;;;;;;;56.00;34.40;;;11.20;99.90;;;;;;4972784;28;25117;-65
2021/11/11 10:47:48;;;;;;;56.42;36.28;;;11.20;99.90;;;;;;4978025;28;25080;-65
2021/11/11 10:50:20;;;;;;;59.05;37.47;;;11.20;99.90;;;;;;4974585;28;25157;-63
2021/11/11 10:52:58;;;;;;;60.53;35.67;;;11.20;99.90;;;;;;4988321;28;25126;-64
2021/11/11 10:55:39;;;;;;;55.60;34.75;;;11.20;99.90;;;;;;4974940;28;25069;-64
2021/11/11 10:58:11;;;;;;;61.85;36.38;;;11.20;99.90;;;;;;4989529;28;25076;-64
2021/11/11 11:00:47;;;;;;;50.13;32.55;;;11.20;99.90;;;;;;4973767;28;25064;-64
2021/11/11 11:03:19;;;;;;;62.10;35.75;;;11.30;99.90;;;;;;4990865;28;25072;-64
2021/11/11 11:05:55;;;;;;;47.60;33.85;;;11.20;99.90;;;;;;4979251;28;25091;-65
2021/11/11 11:08:28;;;;;;;52.33;34.03;;;11.20;99.90;;;;;;4985190;28;25068;-65
2021/11/11 11:11:03;;;;;;;57.15;34.80;;;11.30;99.90;;;;;;4989210;28;25049;-64
2021/11/11 11:13:36;;;;;;;51.50;32.97;;;11.40;99.90;;;;;;4988799;28;25058;-64
2021/11/11 11:16:05;;;;;;;55.28;34.40;;;11.60;99.90;;;;;;4989731;28;25094;-63
2021/11/11 11:18:36;;;;;;;54.47;35.08;;;11.70;99.90;;;;;;4986398;28;25112;-64
2021/11/11 11:21:11;;;;;;;43.38;28.23;;;11.60;99.90;;;;;;4990394;28;25074;-63
2021/11/11 11:23:55;;;;;;;45.35;29.08;;;11.60;99.90;;;;;;4991058;28;25061;-63
2021/11/11 11:26:22;;;;;;;35.95;24.77;;;11.60;99.90;;;;;;4976590;28;25052;-63
2021/11/11 11:29:27;;;;;;;43.15;25.13;;;11.60;99.90;;;;;;4981734;28;25078;-63
2021/11/11 11:34:43;;;;;;;38.13;23.40;;;11.60;99.90;;;;;;4986890;28;25184;-65
2021/11/11 11:37:14;;;;;;;37.50;23.50;;;11.70;99.90;;;;;;4975786;28;25068;-63
2021/11/11 11:39:43;;;;;;;40.15;25.15;;;11.70;99.90;;;;;;4988323;28;25073;-63
2021/11/11 11:42:13;;;;;;;39.47;24.23;;;11.70;99.90;;;;;;4987476;28;25071;-63
2021/11/11 11:44:59;;;;;;;43.80;26.23;;;11.80;99.90;;;;;;4969660;28;25054;-62
2021/11/11 11:50:06;;;;;;;44.33;26.23;;;11.80;99.90;;;;;;4984103;28;25180;-62
2021/11/11 11:52:34;;;;;;;46.53;27.77;;;11.90;99.90;;;;;;4980275;28;25082;-65
2021/11/11 11:55:07;;;;;;;46.83;26.00;;;11.90;99.90;;;;;;4981602;28;25050;-66
2021/11/11 11:57:54;;;;;;;53.67;27.80;;;11.80;99.90;;;;;;4979635;28;25138;-65
2021/11/11 12:01:11;;;;;;;42.10;25.63;;;11.70;99.90;;;;;;4983176;28;25092;-63
2021/11/11 12:06:58;;;;;;;48.67;25.85;;;11.80;99.90;;;;;;4994672;28;25075;-64
2021/11/11 12:09:36;;;;;;;53.40;25.55;;;11.70;99.90;;;;;;4997788;28;25161;-66
2021/11/11 12:15:17;;;;;;;56.85;29.05;;;11.70;99.90;;;;;;4963393;28;25060;-64
2021/11/11 12:40:23;;;;;;;109.97;46.00;;;11.70;99.90;;;;;;4985847;28;25102;-65
2021/11/11 12:42:56;;;;;;;122.90;49.13;;;11.70;99.90;;;;;;4988207;28;25174;-63
2021/11/11 12:45:35;;;;;;;146.23;56.47;;;11.70;99.90;;;;;;4987224;28;25077;-62
2021/11/11 12:48:07;;;;;;;143.63;54.40;;;11.70;99.90;;;;;;4987284;28;25136;-63
2021/11/11 12:50:55;;;;;;;130.88;53.78;;;11.70;99.90;;;;;;4984695;28;25074;-63
2021/11/11 12:53:23;;;;;;;132.98;53.58;;;11.70;99.90;;;;;;4986028;28;25062;-64
2021/11/11 12:55:58;;;;;;;128.00;52.28;;;11.60;99.90;;;;;;4988548;28;25089;-64
2021/11/11 12:58:39;;;;;;;129.70;50.28;;;11.60;99.90;;;;;;4973943;28;25143;-62
2021/11/11 13:01:12;;;;;;;118.75;48.35;;;11.60;99.90;;;;;;4960253;28;25116;-63
2021/11/11 13:03:51;;;;;;;110.05;47.63;;;11.60;99.90;;;;;;4983084;28;25085;-64
2021/11/11 13:06:32;;;;;;;102.05;45.72;;;11.60;99.90;;;;;;4969513;28;25052;-63
2021/11/11 13:08:59;;;;;;;102.97;46.10;;;11.70;99.90;;;;;;4988762;28;25067;-64
2021/11/11 13:11:32;;;;;;;99.50;43.22;;;11.70;99.90;;;;;;4988519;28;25066;-64
2021/11/11 13:14:23;;;;;;;98.82;43.75;;;11.80;99.90;;;;;;4986283;28;25067;-65
2021/11/11 13:17:10;;;;;;;90.35;41.13;;;11.80;99.90;;;;;;4972108;28;25159;-66
2021/11/11 13:19:45;;;;;;;88.35;39.90;;;11.80;99.90;;;;;;4983778;28;25060;-63
2021/11/11 14:27:59;;;;;;;63.67;33.35;;;12.40;99.90;;;;;;4984398;28;25134;-63
2021/11/11 15:15:56;;;;;;;64.68;30.45;;;12.30;99.90;;;;;;4983037;28;25107;-64
2021/11/11 15:18:40;;;;;;;67.65;29.55;;;12.30;99.90;;;;;;4981713;28;25159;-63
2021/11/11 16:02:50;;;;;;;74.57;35.22;;;12.30;99.90;;;;;;4993864;28;25053;-64
2021/11/11 16:24:34;;;;;;;86.30;37.58;;;12.20;99.90;;;;;;4998513;28;25090;-62
2021/11/11 16:27:03;;;;;;;83.47;38.17;;;12.20;99.90;;;;;;4991406;28;25106;-63
2021/11/11 16:29:30;;;;;;;79.50;35.50;;;12.20;99.90;;;;;;4993539;28;25081;-63
2021/11/11 16:31:57;;;;;;;77.85;36.45;;;12.20;99.90;;;;;;4989120;28;25101;-63